sensor_id;sensor_type;location;lat;lon;timestamp;P1;durP1;ratioP1;P2;durP2;ratioP2
16440;SDS011;8330;-33.858;151.184;2023-02-26T00:00:22;3.53;;;0.95;;
16440;SDS011;8330;-33.858;151.184;2023-02-26T00:02:53;2.20;;;0.60;;
16440;SDS011;8330;-33.858;151.184;2023-02-26T00:05:24;3.40;;;0.80;;
16440;SDS011;8330;-33.858;151.184;2023-02-26T00:07:57;1.90;;;0.60;;
16440;SDS011;8330;-33.858;151.184;2023-02-26T00:10:31;1.85;;;0.70;;
16440;SDS011;8330;-33.858;151.184;2023-02-26T00:13:02;4.22;;;0.70;;
16440;SDS011;8330;-33.858;151.184;2023-02-26T00:15:33;4.43;;;0.90;;
16440;SDS011;8330;-33.858;151.184;2023-02-26T00:18:05;3.55;;;0.65;;
16440;SDS011;8330;-33.858;151.184;2023-02-26T00:20:41;2.40;;;0.80;;
16440;SDS011;8330;-33.858;151.184;2023-02-26T00:23:15;2.90;;;0.98;;
16440;SDS011;8330;-33.858;151.184;2023-02-26T00:25:46;1.35;;;0.60;;
16440;SDS011;8330;-33.858;151.184;2023-02-26T00:28:17;1.67;;;0.60;;
16440;SDS011;8330;-33.858;151.184;2023-02-26T00:30:48;1.98;;;0.80;;
16440;SDS011;8330;-33.858;151.184;2023-02-26T00:33:20;1.77;;;0.65;;
16440;SDS011;8330;-33.858;151.184;2023-02-26T00:35:53;2.05;;;0.80;;
16440;SDS011;8330;-33.858;151.184;2023-02-26T00:38:31;1.90;;;0.70;;
16440;SDS011;8330;-33.858;151.184;2023-02-26T00:41:04;1.35;;;0.65;;
16440;SDS011;8330;-33.858;151.184;2023-02-26T00:43:36;3.88;;;1.00;;
16440;SDS011;8330;-33.858;151.184;2023-02-26T00:46:09;4.20;;;1.45;;
16440;SDS011;8330;-33.858;151.184;2023-02-26T00:48:51;2.67;;;1.05;;
16440;SDS011;8330;-33.858;151.184;2023-02-26T00:51:31;4.88;;;1.30;;
16440;SDS011;8330;-33.858;151.184;2023-02-26T00:54:15;3.63;;;1.20;;
16440;SDS011;8330;-33.858;151.184;2023-02-26T00:56:49;6.32;;;1.55;;
16440;SDS011;8330;-33.858;151.184;2023-02-26T00:59:21;3.47;;;1.17;;
16440;SDS011;8330;-33.858;151.184;2023-02-26T01:01:52;3.05;;;0.90;;
16440;SDS011;8330;-33.858;151.184;2023-02-26T01:04:23;4.72;;;1.02;;
16440;SDS011;8330;-33.858;151.184;2023-02-26T01:06:55;2.55;;;1.10;;
16440;SDS011;8330;-33.858;151.184;2023-02-26T01:09:29;5.68;;;1.20;;
16440;SDS011;8330;-33.858;151.184;2023-02-26T01:12:03;6.32;;;1.23;;
16440;SDS011;8330;-33.858;151.184;2023-02-26T01:14:36;5.15;;;1.50;;
16440;SDS011;8330;-33.858;151.184;2023-02-26T01:17:13;6.85;;;1.30;;
16440;SDS011;8330;-33.858;151.184;2023-02-26T01:19:51;4.07;;;1.20;;
16440;SDS011;8330;-33.858;151.184;2023-02-26T01:22:26;4.53;;;1.20;;
16440;SDS011;8330;-33.858;151.184;2023-02-26T01:25:06;4.60;;;1.00;;
16440;SDS011;8330;-33.858;151.184;2023-02-26T01:27:38;4.28;;;1.05;;
16440;SDS011;8330;-33.858;151.184;2023-02-26T01:30:09;3.50;;;1.20;;
16440;SDS011;8330;-33.858;151.184;2023-02-26T01:32:43;4.10;;;1.20;;
16440;SDS011;8330;-33.858;151.184;2023-02-26T01:35:21;4.25;;;1.55;;
16440;SDS011;8330;-33.858;151.184;2023-02-26T01:38:00;3.47;;;1.15;;
16440;SDS011;8330;-33.858;151.184;2023-02-26T01:40:43;6.90;;;1.50;;
16440;SDS011;8330;-33.858;151.184;2023-02-26T01:43:36;7.65;;;1.52;;
16440;SDS011;8330;-33.858;151.184;2023-02-26T01:46:22;3.20;;;1.25;;
16440;SDS011;8330;-33.858;151.184;2023-02-26T01:49:02;9.57;;;1.50;;
16440;SDS011;8330;-33.858;151.184;2023-02-26T01:51:42;6.60;;;1.45;;
16440;SDS011;8330;-33.858;151.184;2023-02-26T01:54:15;2.90;;;1.15;;
16440;SDS011;8330;-33.858;151.184;2023-02-26T01:56:49;4.95;;;1.30;;
16440;SDS011;8330;-33.858;151.184;2023-02-26T01:59:26;4.78;;;1.50;;
16440;SDS011;8330;-33.858;151.184;2023-02-26T02:01:57;3.90;;;1.20;;
16440;SDS011;8330;-33.858;151.184;2023-02-26T02:04:30;6.65;;;1.40;;
16440;SDS011;8330;-33.858;151.184;2023-02-26T02:07:03;4.18;;;1.20;;
16440;SDS011;8330;-33.858;151.184;2023-02-26T02:09:34;6.20;;;1.42;;
16440;SDS011;8330;-33.858;151.184;2023-02-26T02:12:20;3.75;;;1.20;;
16440;SDS011;8330;-33.858;151.184;2023-02-26T02:15:01;4.05;;;1.25;;
16440;SDS011;8330;-33.858;151.184;2023-02-26T02:17:39;7.40;;;1.33;;
16440;SDS011;8330;-33.858;151.184;2023-02-26T02:20:39;3.10;;;1.50;;
16440;SDS011;8330;-33.858;151.184;2023-02-26T02:23:32;3.95;;;0.98;;
16440;SDS011;8330;-33.858;151.184;2023-02-26T02:26:31;5.28;;;1.15;;
16440;SDS011;8330;-33.858;151.184;2023-02-26T02:29:29;4.05;;;1.55;;
16440;SDS011;8330;-33.858;151.184;2023-02-26T02:32:18;4.53;;;1.50;;
16440;SDS011;8330;-33.858;151.184;2023-02-26T02:34:56;4.93;;;1.50;;
16440;SDS011;8330;-33.858;151.184;2023-02-26T02:37:33;6.05;;;1.75;;
16440;SDS011;8330;-33.858;151.184;2023-02-26T02:40:09;6.22;;;1.65;;
16440;SDS011;8330;-33.858;151.184;2023-02-26T02:42:45;8.32;;;1.95;;
16440;SDS011;8330;-33.858;151.184;2023-02-26T02:45:22;8.07;;;1.67;;
16440;SDS011;8330;-33.858;151.184;2023-02-26T02:48:07;4.90;;;1.50;;
16440;SDS011;8330;-33.858;151.184;2023-02-26T02:50:45;7.45;;;1.55;;
16440;SDS011;8330;-33.858;151.184;2023-02-26T02:53:20;4.68;;;1.55;;
16440;SDS011;8330;-33.858;151.184;2023-02-26T02:55:56;9.43;;;1.70;;
16440;SDS011;8330;-33.858;151.184;2023-02-26T02:58:35;5.15;;;1.48;;
16440;SDS011;8330;-33.858;151.184;2023-02-26T03:01:10;7.38;;;1.77;;
16440;SDS011;8330;-33.858;151.184;2023-02-26T03:03:47;6.85;;;2.10;;
16440;SDS011;8330;-33.858;151.184;2023-02-26T03:06:25;4.03;;;1.60;;
16440;SDS011;8330;-33.858;151.184;2023-02-26T03:08:56;8.35;;;2.00;;
16440;SDS011;8330;-33.858;151.184;2023-02-26T03:11:29;3.67;;;1.70;;
16440;SDS011;8330;-33.858;151.184;2023-02-26T03:14:00;4.13;;;1.55;;
16440;SDS011;8330;-33.858;151.184;2023-02-26T03:16:48;4.70;;;1.80;;
16440;SDS011;8330;-33.858;151.184;2023-02-26T03:19:52;5.85;;;1.80;;
16440;SDS011;8330;-33.858;151.184;2023-02-26T03:22:38;6.97;;;1.77;;
16440;SDS011;8330;-33.858;151.184;2023-02-26T03:25:15;6.25;;;1.70;;
16440;SDS011;8330;-33.858;151.184;2023-02-26T03:27:58;6.95;;;1.83;;
16440;SDS011;8330;-33.858;151.184;2023-02-26T03:30:37;5.90;;;1.40;;
16440;SDS011;8330;-33.858;151.184;2023-02-26T03:33:13;5.68;;;1.40;;
16440;SDS011;8330;-33.858;151.184;2023-02-26T03:35:52;4.05;;;1.17;;
16440;SDS011;8330;-33.858;151.184;2023-02-26T03:38:27;9.38;;;1.40;;
16440;SDS011;8330;-33.858;151.184;2023-02-26T03:41:04;4.63;;;1.30;;
16440;SDS011;8330;-33.858;151.184;2023-02-26T03:43:38;5.70;;;1.33;;
16440;SDS011;8330;-33.858;151.184;2023-02-26T03:46:17;6.55;;;1.52;;
16440;SDS011;8330;-33.858;151.184;2023-02-26T03:48:52;4.88;;;1.30;;
16440;SDS011;8330;-33.858;151.184;2023-02-26T03:51:29;7.10;;;1.50;;
16440;SDS011;8330;-33.858;151.184;2023-02-26T03:54:02;5.18;;;1.40;;
16440;SDS011;8330;-33.858;151.184;2023-02-26T03:56:39;5.43;;;1.20;;
16440;SDS011;8330;-33.858;151.184;2023-02-26T03:59:12;6.25;;;1.38;;
16440;SDS011;8330;-33.858;151.184;2023-02-26T04:01:47;5.55;;;1.40;;
16440;SDS011;8330;-33.858;151.184;2023-02-26T04:04:21;5.63;;;1.15;;
16440;SDS011;8330;-33.858;151.184;2023-02-26T04:06:58;6.97;;;1.30;;
16440;SDS011;8330;-33.858;151.184;2023-02-26T04:09:30;3.63;;;1.08;;
16440;SDS011;8330;-33.858;151.184;2023-02-26T04:12:02;8.43;;;1.70;;
16440;SDS011;8330;-33.858;151.184;2023-02-26T04:14:36;3.05;;;1.20;;
16440;SDS011;8330;-33.858;151.184;2023-02-26T04:17:08;6.30;;;1.52;;
16440;SDS011;8330;-33.858;151.184;2023-02-26T04:19:42;4.65;;;1.42;;
16440;SDS011;8330;-33.858;151.184;2023-02-26T04:22:20;5.47;;;1.25;;
16440;SDS011;8330;-33.858;151.184;2023-02-26T04:24:52;6.78;;;2.03;;
16440;SDS011;8330;-33.858;151.184;2023-02-26T04:27:23;7.95;;;1.45;;
16440;SDS011;8330;-33.858;151.184;2023-02-26T04:29:54;4.50;;;1.30;;
16440;SDS011;8330;-33.858;151.184;2023-02-26T04:32:25;3.97;;;1.20;;
16440;SDS011;8330;-33.858;151.184;2023-02-26T04:34:56;3.85;;;1.40;;
16440;SDS011;8330;-33.858;151.184;2023-02-26T04:37:29;2.42;;;1.02;;
16440;SDS011;8330;-33.858;151.184;2023-02-26T04:40:00;4.60;;;1.33;;
16440;SDS011;8330;-33.858;151.184;2023-02-26T04:42:32;6.28;;;1.70;;
16440;SDS011;8330;-33.858;151.184;2023-02-26T04:45:03;4.47;;;1.23;;
16440;SDS011;8330;-33.858;151.184;2023-02-26T04:47:35;6.25;;;1.40;;
16440;SDS011;8330;-33.858;151.184;2023-02-26T04:50:06;9.32;;;1.30;;
16440;SDS011;8330;-33.858;151.184;2023-02-26T04:52:40;5.22;;;1.23;;
16440;SDS011;8330;-33.858;151.184;2023-02-26T04:55:11;3.50;;;1.20;;
16440;SDS011;8330;-33.858;151.184;2023-02-26T04:57:42;3.85;;;1.05;;
16440;SDS011;8330;-33.858;151.184;2023-02-26T05:00:14;2.55;;;0.93;;
16440;SDS011;8330;-33.858;151.184;2023-02-26T05:02:45;4.47;;;1.30;;
16440;SDS011;8330;-33.858;151.184;2023-02-26T05:05:16;4.70;;;1.30;;
16440;SDS011;8330;-33.858;151.184;2023-02-26T05:07:49;7.65;;;1.60;;
16440;SDS011;8330;-33.858;151.184;2023-02-26T05:10:22;6.57;;;1.67;;
16440;SDS011;8330;-33.858;151.184;2023-02-26T05:12:53;5.85;;;1.30;;
16440;SDS011;8330;-33.858;151.184;2023-02-26T05:15:26;4.95;;;1.38;;
16440;SDS011;8330;-33.858;151.184;2023-02-26T05:17:57;4.15;;;1.15;;
16440;SDS011;8330;-33.858;151.184;2023-02-26T05:20:29;6.43;;;1.25;;
16440;SDS011;8330;-33.858;151.184;2023-02-26T05:23:03;5.22;;;1.52;;
16440;SDS011;8330;-33.858;151.184;2023-02-26T05:25:35;9.30;;;1.83;;
16440;SDS011;8330;-33.858;151.184;2023-02-26T05:28:06;2.88;;;1.17;;
16440;SDS011;8330;-33.858;151.184;2023-02-26T05:30:37;3.90;;;1.20;;
16440;SDS011;8330;-33.858;151.184;2023-02-26T05:33:08;5.43;;;1.50;;
16440;SDS011;8330;-33.858;151.184;2023-02-26T05:35:39;4.40;;;1.30;;
16440;SDS011;8330;-33.858;151.184;2023-02-26T05:38:12;4.32;;;1.10;;
16440;SDS011;8330;-33.858;151.184;2023-02-26T05:40:43;3.42;;;1.23;;
16440;SDS011;8330;-33.858;151.184;2023-02-26T05:43:15;4.13;;;1.13;;
16440;SDS011;8330;-33.858;151.184;2023-02-26T05:45:46;3.45;;;1.00;;
16440;SDS011;8330;-33.858;151.184;2023-02-26T05:48:19;4.47;;;1.10;;
16440;SDS011;8330;-33.858;151.184;2023-02-26T05:50:50;3.03;;;0.93;;
16440;SDS011;8330;-33.858;151.184;2023-02-26T05:53:23;5.65;;;1.15;;
16440;SDS011;8330;-33.858;151.184;2023-02-26T05:55:54;5.95;;;1.30;;
16440;SDS011;8330;-33.858;151.184;2023-02-26T05:58:28;4.93;;;1.13;;
16440;SDS011;8330;-33.858;151.184;2023-02-26T06:00:59;3.88;;;0.85;;
16440;SDS011;8330;-33.858;151.184;2023-02-26T06:03:32;6.00;;;1.23;;
16440;SDS011;8330;-33.858;151.184;2023-02-26T06:06:05;5.45;;;1.25;;
16440;SDS011;8330;-33.858;151.184;2023-02-26T06:08:38;3.40;;;1.10;;
16440;SDS011;8330;-33.858;151.184;2023-02-26T06:11:09;7.05;;;1.30;;
16440;SDS011;8330;-33.858;151.184;2023-02-26T06:13:41;5.70;;;1.10;;
16440;SDS011;8330;-33.858;151.184;2023-02-26T06:16:12;3.70;;;1.20;;
16440;SDS011;8330;-33.858;151.184;2023-02-26T06:18:43;6.97;;;1.00;;
16440;SDS011;8330;-33.858;151.184;2023-02-26T06:21:15;5.13;;;1.15;;
16440;SDS011;8330;-33.858;151.184;2023-02-26T06:23:48;6.00;;;1.10;;
16440;SDS011;8330;-33.858;151.184;2023-02-26T06:26:19;5.43;;;0.90;;
16440;SDS011;8330;-33.858;151.184;2023-02-26T06:28:50;5.88;;;1.30;;
16440;SDS011;8330;-33.858;151.184;2023-02-26T06:31:21;4.15;;;1.20;;
16440;SDS011;8330;-33.858;151.184;2023-02-26T06:33:52;4.88;;;1.20;;
16440;SDS011;8330;-33.858;151.184;2023-02-26T06:36:23;4.78;;;1.33;;
16440;SDS011;8330;-33.858;151.184;2023-02-26T06:38:58;5.85;;;1.13;;
16440;SDS011;8330;-33.858;151.184;2023-02-26T06:41:30;4.18;;;1.27;;
16440;SDS011;8330;-33.858;151.184;2023-02-26T06:44:01;4.25;;;1.00;;
16440;SDS011;8330;-33.858;151.184;2023-02-26T06:46:32;4.15;;;1.33;;
16440;SDS011;8330;-33.858;151.184;2023-02-26T06:49:03;3.72;;;0.90;;
16440;SDS011;8330;-33.858;151.184;2023-02-26T06:51:35;4.30;;;1.38;;
16440;SDS011;8330;-33.858;151.184;2023-02-26T06:54:08;5.88;;;1.50;;
16440;SDS011;8330;-33.858;151.184;2023-02-26T06:56:39;6.05;;;1.80;;
16440;SDS011;8330;-33.858;151.184;2023-02-26T06:59:11;5.90;;;2.42;;
16440;SDS011;8330;-33.858;151.184;2023-02-26T07:01:42;7.28;;;1.50;;
16440;SDS011;8330;-33.858;151.184;2023-02-26T07:04:13;5.93;;;1.60;;
16440;SDS011;8330;-33.858;151.184;2023-02-26T07:06:44;7.72;;;1.40;;
16440;SDS011;8330;-33.858;151.184;2023-02-26T07:09:17;7.32;;;1.33;;
16440;SDS011;8330;-33.858;151.184;2023-02-26T07:11:50;4.78;;;1.20;;
16440;SDS011;8330;-33.858;151.184;2023-02-26T07:14:21;3.97;;;1.38;;
16440;SDS011;8330;-33.858;151.184;2023-02-26T07:16:53;4.43;;;1.27;;
16440;SDS011;8330;-33.858;151.184;2023-02-26T07:19:24;5.43;;;1.40;;
16440;SDS011;8330;-33.858;151.184;2023-02-26T07:21:55;3.40;;;1.10;;
16440;SDS011;8330;-33.858;151.184;2023-02-26T07:24:28;3.17;;;1.30;;
16440;SDS011;8330;-33.858;151.184;2023-02-26T07:26:59;4.45;;;1.05;;
16440;SDS011;8330;-33.858;151.184;2023-02-26T07:29:30;4.03;;;1.10;;
16440;SDS011;8330;-33.858;151.184;2023-02-26T07:32:01;6.03;;;1.23;;
16440;SDS011;8330;-33.858;151.184;2023-02-26T07:34:33;6.30;;;1.38;;
16440;SDS011;8330;-33.858;151.184;2023-02-26T07:37:04;6.80;;;1.40;;
16440;SDS011;8330;-33.858;151.184;2023-02-26T07:39:37;6.20;;;1.20;;
16440;SDS011;8330;-33.858;151.184;2023-02-26T07:42:08;2.58;;;1.00;;
16440;SDS011;8330;-33.858;151.184;2023-02-26T07:44:39;6.22;;;1.73;;
16440;SDS011;8330;-33.858;151.184;2023-02-26T07:47:11;4.15;;;1.50;;
16440;SDS011;8330;-33.858;151.184;2023-02-26T07:49:42;8.68;;;1.70;;
16440;SDS011;8330;-33.858;151.184;2023-02-26T07:52:13;6.18;;;1.35;;
16440;SDS011;8330;-33.858;151.184;2023-02-26T07:54:46;4.97;;;1.48;;
16440;SDS011;8330;-33.858;151.184;2023-02-26T07:57:17;5.57;;;1.52;;
16440;SDS011;8330;-33.858;151.184;2023-02-26T07:59:48;7.18;;;1.73;;
16440;SDS011;8330;-33.858;151.184;2023-02-26T08:02:19;5.80;;;1.60;;
16440;SDS011;8330;-33.858;151.184;2023-02-26T08:04:50;5.32;;;1.55;;
16440;SDS011;8330;-33.858;151.184;2023-02-26T08:07:22;7.78;;;1.50;;
16440;SDS011;8330;-33.858;151.184;2023-02-26T08:09:55;5.95;;;1.65;;
16440;SDS011;8330;-33.858;151.184;2023-02-26T08:12:26;4.15;;;1.20;;
16440;SDS011;8330;-33.858;151.184;2023-02-26T08:14:58;6.45;;;1.55;;
16440;SDS011;8330;-33.858;151.184;2023-02-26T08:17:29;6.43;;;1.30;;
16440;SDS011;8330;-33.858;151.184;2023-02-26T08:20:00;7.95;;;1.65;;
16440;SDS011;8330;-33.858;151.184;2023-02-26T08:25:05;3.97;;;1.10;;
16440;SDS011;8330;-33.858;151.184;2023-02-26T08:27:37;6.53;;;1.20;;
16440;SDS011;8330;-33.858;151.184;2023-02-26T08:30:09;8.20;;;1.50;;
16440;SDS011;8330;-33.858;151.184;2023-02-26T08:32:41;6.45;;;1.27;;
16440;SDS011;8330;-33.858;151.184;2023-02-26T08:35:12;4.35;;;1.33;;
16440;SDS011;8330;-33.858;151.184;2023-02-26T08:37:43;6.90;;;1.23;;
16440;SDS011;8330;-33.858;151.184;2023-02-26T08:40:16;4.43;;;1.30;;
16440;SDS011;8330;-33.858;151.184;2023-02-26T08:42:48;6.43;;;1.60;;
16440;SDS011;8330;-33.858;151.184;2023-02-26T08:45:19;6.20;;;1.33;;
16440;SDS011;8330;-33.858;151.184;2023-02-26T08:47:50;7.07;;;1.30;;
16440;SDS011;8330;-33.858;151.184;2023-02-26T08:50:21;7.85;;;1.30;;
16440;SDS011;8330;-33.858;151.184;2023-02-26T08:52:52;4.55;;;1.33;;
16440;SDS011;8330;-33.858;151.184;2023-02-26T08:55:26;4.60;;;1.20;;
16440;SDS011;8330;-33.858;151.184;2023-02-26T08:57:57;6.07;;;1.55;;
16440;SDS011;8330;-33.858;151.184;2023-02-26T09:00:28;6.35;;;1.52;;
16440;SDS011;8330;-33.858;151.184;2023-02-26T09:02:59;6.88;;;1.58;;
16440;SDS011;8330;-33.858;151.184;2023-02-26T09:05:30;5.43;;;1.30;;
16440;SDS011;8330;-33.858;151.184;2023-02-26T09:08:02;6.43;;;1.27;;
16440;SDS011;8330;-33.858;151.184;2023-02-26T09:10:35;5.90;;;1.27;;
16440;SDS011;8330;-33.858;151.184;2023-02-26T09:13:06;6.63;;;1.55;;
16440;SDS011;8330;-33.858;151.184;2023-02-26T09:15:37;7.78;;;1.30;;
16440;SDS011;8330;-33.858;151.184;2023-02-26T09:18:08;5.32;;;1.55;;
16440;SDS011;8330;-33.858;151.184;2023-02-26T09:20:41;4.63;;;1.20;;
16440;SDS011;8330;-33.858;151.184;2023-02-26T09:23:12;6.80;;;1.50;;
16440;SDS011;8330;-33.858;151.184;2023-02-26T09:25:45;4.40;;;1.13;;
16440;SDS011;8330;-33.858;151.184;2023-02-26T09:28:21;7.78;;;1.40;;
16440;SDS011;8330;-33.858;151.184;2023-02-26T09:30:52;7.60;;;1.60;;
16440;SDS011;8330;-33.858;151.184;2023-02-26T09:33:24;5.75;;;1.52;;
16440;SDS011;8330;-33.858;151.184;2023-02-26T09:35:55;7.72;;;1.60;;
16440;SDS011;8330;-33.858;151.184;2023-02-26T09:38:27;6.28;;;1.35;;
16440;SDS011;8330;-33.858;151.184;2023-02-26T09:41:03;7.05;;;1.45;;
16440;SDS011;8330;-33.858;151.184;2023-02-26T09:43:46;4.70;;;1.35;;
16440;SDS011;8330;-33.858;151.184;2023-02-26T09:46:36;9.20;;;1.60;;
16440;SDS011;8330;-33.858;151.184;2023-02-26T09:49:18;5.93;;;1.30;;
16440;SDS011;8330;-33.858;151.184;2023-02-26T09:52:01;4.28;;;1.45;;
16440;SDS011;8330;-33.858;151.184;2023-02-26T09:54:43;5.55;;;1.48;;
16440;SDS011;8330;-33.858;151.184;2023-02-26T09:57:24;7.40;;;1.65;;
16440;SDS011;8330;-33.858;151.184;2023-02-26T09:59:58;5.07;;;1.50;;
16440;SDS011;8330;-33.858;151.184;2023-02-26T10:02:35;3.03;;;1.08;;
16440;SDS011;8330;-33.858;151.184;2023-02-26T10:05:17;5.88;;;1.30;;
16440;SDS011;8330;-33.858;151.184;2023-02-26T10:07:53;4.93;;;1.48;;
16440;SDS011;8330;-33.858;151.184;2023-02-26T10:10:30;5.72;;;1.40;;
16440;SDS011;8330;-33.858;151.184;2023-02-26T10:13:14;3.58;;;1.17;;
16440;SDS011;8330;-33.858;151.184;2023-02-26T10:15:53;4.65;;;1.10;;
16440;SDS011;8330;-33.858;151.184;2023-02-26T10:18:31;4.45;;;1.30;;
16440;SDS011;8330;-33.858;151.184;2023-02-26T10:21:08;3.45;;;0.98;;
16440;SDS011;8330;-33.858;151.184;2023-02-26T10:23:44;5.53;;;1.08;;
16440;SDS011;8330;-33.858;151.184;2023-02-26T10:26:22;4.07;;;1.23;;
16440;SDS011;8330;-33.858;151.184;2023-02-26T10:28:58;4.30;;;1.33;;
16440;SDS011;8330;-33.858;151.184;2023-02-26T10:31:36;3.28;;;1.02;;
16440;SDS011;8330;-33.858;151.184;2023-02-26T10:34:15;5.80;;;1.20;;
16440;SDS011;8330;-33.858;151.184;2023-02-26T10:36:54;3.88;;;1.27;;
16440;SDS011;8330;-33.858;151.184;2023-02-26T10:39:32;4.88;;;1.70;;
16440;SDS011;8330;-33.858;151.184;2023-02-26T10:42:09;5.47;;;1.58;;
16440;SDS011;8330;-33.858;151.184;2023-02-26T10:44:46;4.05;;;1.30;;
16440;SDS011;8330;-33.858;151.184;2023-02-26T10:47:27;3.13;;;1.00;;
16440;SDS011;8330;-33.858;151.184;2023-02-26T10:50:07;3.08;;;0.93;;
16440;SDS011;8330;-33.858;151.184;2023-02-26T10:52:43;4.38;;;1.20;;
16440;SDS011;8330;-33.858;151.184;2023-02-26T10:55:22;2.58;;;0.90;;
16440;SDS011;8330;-33.858;151.184;2023-02-26T10:58:02;3.30;;;0.90;;
16440;SDS011;8330;-33.858;151.184;2023-02-26T11:00:40;4.57;;;1.00;;
16440;SDS011;8330;-33.858;151.184;2023-02-26T11:03:13;4.38;;;1.00;;
16440;SDS011;8330;-33.858;151.184;2023-02-26T11:05:47;5.18;;;0.98;;
16440;SDS011;8330;-33.858;151.184;2023-02-26T11:08:23;3.65;;;1.00;;
16440;SDS011;8330;-33.858;151.184;2023-02-26T11:10:56;4.65;;;0.90;;
16440;SDS011;8330;-33.858;151.184;2023-02-26T11:13:29;3.45;;;1.10;;
16440;SDS011;8330;-33.858;151.184;2023-02-26T11:16:05;4.68;;;0.90;;
16440;SDS011;8330;-33.858;151.184;2023-02-26T11:18:40;3.80;;;0.88;;
16440;SDS011;8330;-33.858;151.184;2023-02-26T11:21:15;2.45;;;0.80;;
16440;SDS011;8330;-33.858;151.184;2023-02-26T11:23:49;4.13;;;1.02;;
16440;SDS011;8330;-33.858;151.184;2023-02-26T11:26:26;3.67;;;0.95;;
16440;SDS011;8330;-33.858;151.184;2023-02-26T11:29:03;5.88;;;0.93;;
16440;SDS011;8330;-33.858;151.184;2023-02-26T11:31:36;3.78;;;0.70;;
16440;SDS011;8330;-33.858;151.184;2023-02-26T11:34:09;2.25;;;1.00;;
16440;SDS011;8330;-33.858;151.184;2023-02-26T11:36:41;2.85;;;0.90;;
16440;SDS011;8330;-33.858;151.184;2023-02-26T11:39:14;3.38;;;1.10;;
16440;SDS011;8330;-33.858;151.184;2023-02-26T11:41:47;5.95;;;1.10;;
16440;SDS011;8330;-33.858;151.184;2023-02-26T11:44:19;3.85;;;1.20;;
16440;SDS011;8330;-33.858;151.184;2023-02-26T11:47:05;6.07;;;1.20;;
16440;SDS011;8330;-33.858;151.184;2023-02-26T11:49:42;5.28;;;1.30;;
16440;SDS011;8330;-33.858;151.184;2023-02-26T11:52:20;4.22;;;1.10;;
16440;SDS011;8330;-33.858;151.184;2023-02-26T11:55:03;3.20;;;1.13;;
16440;SDS011;8330;-33.858;151.184;2023-02-26T11:57:50;3.20;;;1.00;;
16440;SDS011;8330;-33.858;151.184;2023-02-26T12:00:23;3.92;;;1.17;;
16440;SDS011;8330;-33.858;151.184;2023-02-26T12:03:03;4.95;;;1.38;;
16440;SDS011;8330;-33.858;151.184;2023-02-26T12:05:48;4.28;;;1.13;;
16440;SDS011;8330;-33.858;151.184;2023-02-26T12:08:22;3.45;;;1.50;;
16440;SDS011;8330;-33.858;151.184;2023-02-26T12:11:04;7.97;;;1.48;;
16440;SDS011;8330;-33.858;151.184;2023-02-26T12:13:43;6.53;;;1.38;;
16440;SDS011;8330;-33.858;151.184;2023-02-26T12:16:27;6.40;;;1.50;;
16440;SDS011;8330;-33.858;151.184;2023-02-26T12:19:05;6.18;;;1.65;;
16440;SDS011;8330;-33.858;151.184;2023-02-26T12:21:51;2.85;;;1.17;;
16440;SDS011;8330;-33.858;151.184;2023-02-26T12:24:48;7.22;;;1.50;;
16440;SDS011;8330;-33.858;151.184;2023-02-26T12:27:45;4.70;;;1.52;;
16440;SDS011;8330;-33.858;151.184;2023-02-26T12:30:40;3.47;;;1.30;;
16440;SDS011;8330;-33.858;151.184;2023-02-26T12:33:25;5.47;;;1.23;;
16440;SDS011;8330;-33.858;151.184;2023-02-26T12:36:10;6.80;;;1.33;;
16440;SDS011;8330;-33.858;151.184;2023-02-26T12:39:00;3.47;;;1.00;;
16440;SDS011;8330;-33.858;151.184;2023-02-26T12:41:53;5.25;;;1.20;;
16440;SDS011;8330;-33.858;151.184;2023-02-26T12:44:40;2.58;;;0.88;;
16440;SDS011;8330;-33.858;151.184;2023-02-26T12:47:25;4.20;;;1.00;;
16440;SDS011;8330;-33.858;151.184;2023-02-26T12:50:15;4.95;;;1.27;;
16440;SDS011;8330;-33.858;151.184;2023-02-26T12:53:11;4.13;;;1.25;;
16440;SDS011;8330;-33.858;151.184;2023-02-26T12:56:12;5.95;;;1.17;;
16440;SDS011;8330;-33.858;151.184;2023-02-26T12:59:12;5.00;;;1.27;;
16440;SDS011;8330;-33.858;151.184;2023-02-26T13:02:00;5.68;;;1.17;;
16440;SDS011;8330;-33.858;151.184;2023-02-26T13:04:59;4.53;;;1.10;;
16440;SDS011;8330;-33.858;151.184;2023-02-26T13:08:03;3.65;;;1.30;;
16440;SDS011;8330;-33.858;151.184;2023-02-26T13:10:50;4.63;;;1.17;;
16440;SDS011;8330;-33.858;151.184;2023-02-26T13:13:41;3.47;;;1.10;;
16440;SDS011;8330;-33.858;151.184;2023-02-26T13:16:23;3.42;;;1.00;;
16440;SDS011;8330;-33.858;151.184;2023-02-26T13:19:10;2.85;;;1.00;;
16440;SDS011;8330;-33.858;151.184;2023-02-26T13:21:52;3.38;;;1.05;;
16440;SDS011;8330;-33.858;151.184;2023-02-26T13:24:29;3.42;;;0.90;;
16440;SDS011;8330;-33.858;151.184;2023-02-26T13:27:06;3.38;;;1.10;;
16440;SDS011;8330;-33.858;151.184;2023-02-26T13:29:40;4.90;;;1.15;;
16440;SDS011;8330;-33.858;151.184;2023-02-26T13:32:21;4.80;;;1.15;;
16440;SDS011;8330;-33.858;151.184;2023-02-26T13:34:55;7.57;;;1.70;;
16440;SDS011;8330;-33.858;151.184;2023-02-26T13:37:28;5.43;;;1.20;;
16440;SDS011;8330;-33.858;151.184;2023-02-26T13:43:01;5.13;;;1.33;;
16440;SDS011;8330;-33.858;151.184;2023-02-26T13:45:47;5.55;;;1.52;;
16440;SDS011;8330;-33.858;151.184;2023-02-26T13:48:31;7.93;;;1.83;;
16440;SDS011;8330;-33.858;151.184;2023-02-26T13:51:09;4.88;;;1.02;;
16440;SDS011;8330;-33.858;151.184;2023-02-26T13:53:53;4.80;;;1.33;;
16440;SDS011;8330;-33.858;151.184;2023-02-26T13:59:25;5.15;;;1.50;;
16440;SDS011;8330;-33.858;151.184;2023-02-26T14:05:08;10.77;;;2.72;;
16440;SDS011;8330;-33.858;151.184;2023-02-26T14:08:07;15.73;;;4.20;;
16440;SDS011;8330;-33.858;151.184;2023-02-26T14:10:53;23.30;;;5.20;;
16440;SDS011;8330;-33.858;151.184;2023-02-26T14:13:34;17.45;;;4.90;;
16440;SDS011;8330;-33.858;151.184;2023-02-26T14:16:12;20.70;;;4.50;;
16440;SDS011;8330;-33.858;151.184;2023-02-26T14:18:49;23.38;;;5.10;;
16440;SDS011;8330;-33.858;151.184;2023-02-26T14:21:45;24.58;;;5.55;;
16440;SDS011;8330;-33.858;151.184;2023-02-26T14:24:21;24.77;;;5.30;;
16440;SDS011;8330;-33.858;151.184;2023-02-26T14:27:20;19.80;;;4.97;;
16440;SDS011;8330;-33.858;151.184;2023-02-26T14:30:14;20.00;;;5.00;;
16440;SDS011;8330;-33.858;151.184;2023-02-26T14:32:48;20.35;;;4.95;;
16440;SDS011;8330;-33.858;151.184;2023-02-26T14:35:22;20.48;;;5.30;;
16440;SDS011;8330;-33.858;151.184;2023-02-26T14:37:56;16.83;;;4.80;;
16440;SDS011;8330;-33.858;151.184;2023-02-26T14:40:31;19.23;;;5.05;;
16440;SDS011;8330;-33.858;151.184;2023-02-26T14:43:06;16.52;;;4.20;;
16440;SDS011;8330;-33.858;151.184;2023-02-26T14:45:46;19.95;;;5.28;;
16440;SDS011;8330;-33.858;151.184;2023-02-26T14:48:18;16.48;;;5.07;;
16440;SDS011;8330;-33.858;151.184;2023-02-26T14:50:57;18.85;;;4.68;;
16440;SDS011;8330;-33.858;151.184;2023-02-26T14:53:52;22.08;;;5.07;;
16440;SDS011;8330;-33.858;151.184;2023-02-26T14:56:37;18.83;;;5.10;;
16440;SDS011;8330;-33.858;151.184;2023-02-26T14:59:21;20.40;;;5.28;;
16440;SDS011;8330;-33.858;151.184;2023-02-26T15:02:16;18.95;;;4.45;;
16440;SDS011;8330;-33.858;151.184;2023-02-26T15:07:57;17.88;;;4.40;;
16440;SDS011;8330;-33.858;151.184;2023-02-26T15:10:53;19.75;;;4.88;;
16440;SDS011;8330;-33.858;151.184;2023-02-26T15:13:51;23.35;;;5.10;;
16440;SDS011;8330;-33.858;151.184;2023-02-26T15:16:40;19.50;;;4.50;;
16440;SDS011;8330;-33.858;151.184;2023-02-26T15:19:34;17.33;;;4.15;;
16440;SDS011;8330;-33.858;151.184;2023-02-26T15:22:16;15.57;;;4.05;;
16440;SDS011;8330;-33.858;151.184;2023-02-26T15:24:55;16.58;;;4.90;;
16440;SDS011;8330;-33.858;151.184;2023-02-26T15:27:28;17.50;;;4.45;;
16440;SDS011;8330;-33.858;151.184;2023-02-26T15:30:01;16.02;;;4.50;;